Hauptseite
METAR-TAF:

METAR-TAF

Flughäfen :

Dakar, Senegal

Flughafen Dakar-Léopold Sédar Senghor

Breite: 14-44N, Länge: 017-30W, Höhe: 27 m

Beobachtung

Neuester Wetterbericht von vor 1 Stunde und 12 Minuten, um 01:30 UTC
Wind 6 kt aus West/Nordwest
Temperatur 26°C
Luftfeuchtigkeit 74%
Luftdruck 1011 hPa
Sichtweite 10 km oder mehr
Leicht bewölkt in der Höhe von 1000 ft

METAR: GOOY 280130Z 30006KT 9999 FEW010 26/21 Q1011 NOSIG

Zeit: 02:42 (02:42 UTC)

Prognose

Neuester Wetterbericht von vor 3 Stunden und 12 Minuten, um 23:30 UTC
Gültige Prognose vom 28 um 00 UTC bis 29 um 06 UTC
Wind 8 kt aus West
Sichtweite 10 km oder mehr
Aufgelockert bewölkt in der Höhe von 1000 ft

TAF: GOOY 272330Z 2800/2906 26008KT 9999 SCT010

Wetterbeobachtungen und Prognosen von mehr als 4000 Flughäfen (METAR und TAF Bericht).

Die verfügbaren Stationen werden durch gelbe und rote Markierungen auf der Karte dargestellt.

Führen Sie die Maus auf sie, um den Namen der Station zu sehen.

Darauf klicken, um die Beobachtung von Wetterbeobachtungen und Prognosen zu sehen.

Um die Karte zu ändern : klicken Sie auf den grünen Tasten mit einem schwarzen Kreuz Zum Vergrößern, auf den grünen Button mit einem Gedankenstrich zu verkleinern, oder auf die grünen Pfeile für benachbarte Karten.


METAR-TAF: